sensor_id;sensor_type;location;lat;lon;timestamp;P1;durP1;ratioP1;P2;durP2;ratioP2
56770;SDS011;42641;59.794;17.616;2023-09-19T00:00:42;5.57;;;3.70;;
56770;SDS011;42641;59.794;17.616;2023-09-19T00:03:09;6.88;;;4.40;;
56770;SDS011;42641;59.794;17.616;2023-09-19T00:05:37;7.40;;;4.10;;
56770;SDS011;42641;59.794;17.616;2023-09-19T00:08:05;7.60;;;4.30;;
56770;SDS011;42641;59.794;17.616;2023-09-19T00:10:32;7.18;;;4.30;;
56770;SDS011;42641;59.794;17.616;2023-09-19T00:13:02;7.32;;;4.30;;
56770;SDS011;42641;59.794;17.616;2023-09-19T00:15:31;6.80;;;4.40;;
56770;SDS011;42641;59.794;17.616;2023-09-19T00:18:06;6.57;;;4.20;;
56770;SDS011;42641;59.794;17.616;2023-09-19T00:20:37;7.20;;;4.20;;
56770;SDS011;42641;59.794;17.616;2023-09-19T00:23:04;6.50;;;4.85;;
56770;SDS011;42641;59.794;17.616;2023-09-19T00:25:31;6.65;;;4.50;;
56770;SDS011;42641;59.794;17.616;2023-09-19T00:27:57;7.20;;;4.60;;
56770;SDS011;42641;59.794;17.616;2023-09-19T00:30:24;6.55;;;4.35;;
56770;SDS011;42641;59.794;17.616;2023-09-19T00:32:50;8.30;;;4.85;;
56770;SDS011;42641;59.794;17.616;2023-09-19T00:35:23;11.50;;;4.90;;
56770;SDS011;42641;59.794;17.616;2023-09-19T00:37:50;5.68;;;4.38;;
56770;SDS011;42641;59.794;17.616;2023-09-19T00:40:17;6.32;;;4.47;;
56770;SDS011;42641;59.794;17.616;2023-09-19T00:42:44;9.05;;;4.68;;
56770;SDS011;42641;59.794;17.616;2023-09-19T00:45:12;11.23;;;5.22;;
56770;SDS011;42641;59.794;17.616;2023-09-19T00:47:49;7.25;;;4.75;;
56770;SDS011;42641;59.794;17.616;2023-09-19T00:50:21;6.90;;;4.68;;
56770;SDS011;42641;59.794;17.616;2023-09-19T00:52:50;7.90;;;4.93;;
56770;SDS011;42641;59.794;17.616;2023-09-19T00:55:19;9.88;;;5.30;;
56770;SDS011;42641;59.794;17.616;2023-09-19T00:57:46;6.60;;;5.30;;
56770;SDS011;42641;59.794;17.616;2023-09-19T01:00:15;7.60;;;5.50;;
56770;SDS011;42641;59.794;17.616;2023-09-19T01:02:45;17.98;;;6.45;;
56770;SDS011;42641;59.794;17.616;2023-09-19T01:05:13;9.48;;;5.85;;
56770;SDS011;42641;59.794;17.616;2023-09-19T01:07:40;10.82;;;5.82;;
56770;SDS011;42641;59.794;17.616;2023-09-19T01:10:13;9.57;;;5.85;;
56770;SDS011;42641;59.794;17.616;2023-09-19T01:15:51;7.18;;;5.93;;
56770;SDS011;42641;59.794;17.616;2023-09-19T01:18:43;9.77;;;5.82;;
56770;SDS011;42641;59.794;17.616;2023-09-19T01:27:52;10.02;;;6.30;;
56770;SDS011;42641;59.794;17.616;2023-09-19T01:30:24;12.20;;;6.45;;
56770;SDS011;42641;59.794;17.616;2023-09-19T01:32:58;9.13;;;6.47;;
56770;SDS011;42641;59.794;17.616;2023-09-19T01:35:25;8.82;;;6.15;;
56770;SDS011;42641;59.794;17.616;2023-09-19T01:37:53;11.15;;;6.35;;
56770;SDS011;42641;59.794;17.616;2023-09-19T01:40:20;9.23;;;7.00;;
56770;SDS011;42641;59.794;17.616;2023-09-19T01:47:51;12.85;;;7.10;;
56770;SDS011;42641;59.794;17.616;2023-09-19T01:50:32;9.70;;;7.10;;
56770;SDS011;42641;59.794;17.616;2023-09-19T01:53:07;10.85;;;7.22;;
56770;SDS011;42641;59.794;17.616;2023-09-19T01:55:42;10.15;;;7.13;;
56770;SDS011;42641;59.794;17.616;2023-09-19T01:58:16;13.30;;;6.82;;
56770;SDS011;42641;59.794;17.616;2023-09-19T02:00:55;14.63;;;8.02;;
56770;SDS011;42641;59.794;17.616;2023-09-19T02:03:25;10.20;;;7.75;;
56770;SDS011;42641;59.794;17.616;2023-09-19T02:05:54;12.77;;;7.85;;
56770;SDS011;42641;59.794;17.616;2023-09-19T02:08:22;10.95;;;7.30;;
56770;SDS011;42641;59.794;17.616;2023-09-19T02:10:52;13.35;;;8.48;;
56770;SDS011;42641;59.794;17.616;2023-09-19T02:13:19;9.98;;;8.27;;
56770;SDS011;42641;59.794;17.616;2023-09-19T02:15:50;14.98;;;8.07;;
56770;SDS011;42641;59.794;17.616;2023-09-19T02:18:17;12.65;;;8.60;;
56770;SDS011;42641;59.794;17.616;2023-09-19T02:20:44;11.73;;;8.80;;
56770;SDS011;42641;59.794;17.616;2023-09-19T02:23:12;16.15;;;8.82;;
56770;SDS011;42641;59.794;17.616;2023-09-19T02:25:39;13.27;;;8.82;;
56770;SDS011;42641;59.794;17.616;2023-09-19T02:28:09;16.40;;;9.25;;
56770;SDS011;42641;59.794;17.616;2023-09-19T02:30:37;13.45;;;9.18;;
56770;SDS011;42641;59.794;17.616;2023-09-19T02:33:04;16.15;;;9.15;;
56770;SDS011;42641;59.794;17.616;2023-09-19T02:35:31;12.80;;;8.70;;
56770;SDS011;42641;59.794;17.616;2023-09-19T02:38:01;16.13;;;9.00;;
56770;SDS011;42641;59.794;17.616;2023-09-19T02:40:32;17.17;;;10.32;;
56770;SDS011;42641;59.794;17.616;2023-09-19T02:43:01;16.73;;;9.95;;
56770;SDS011;42641;59.794;17.616;2023-09-19T02:45:28;15.13;;;10.07;;
56770;SDS011;42641;59.794;17.616;2023-09-19T02:47:56;18.98;;;11.05;;
56770;SDS011;42641;59.794;17.616;2023-09-19T02:50:24;13.93;;;9.55;;
56770;SDS011;42641;59.794;17.616;2023-09-19T02:52:50;13.77;;;9.77;;
56770;SDS011;42641;59.794;17.616;2023-09-19T02:55:17;15.05;;;10.45;;
56770;SDS011;42641;59.794;17.616;2023-09-19T02:57:45;13.77;;;10.57;;
56770;SDS011;42641;59.794;17.616;2023-09-19T03:00:13;13.63;;;10.18;;
56770;SDS011;42641;59.794;17.616;2023-09-19T03:02:40;21.63;;;10.68;;
56770;SDS011;42641;59.794;17.616;2023-09-19T03:05:07;21.45;;;11.02;;
56770;SDS011;42641;59.794;17.616;2023-09-19T03:07:37;16.05;;;10.20;;
56770;SDS011;42641;59.794;17.616;2023-09-19T03:10:05;14.45;;;10.15;;
56770;SDS011;42641;59.794;17.616;2023-09-19T03:12:33;18.33;;;11.05;;
56770;SDS011;42641;59.794;17.616;2023-09-19T03:15:00;17.10;;;11.00;;
56770;SDS011;42641;59.794;17.616;2023-09-19T03:17:28;16.52;;;10.82;;
56770;SDS011;42641;59.794;17.616;2023-09-19T03:19:55;15.40;;;11.15;;
56770;SDS011;42641;59.794;17.616;2023-09-19T03:22:23;17.58;;;11.95;;
56770;SDS011;42641;59.794;17.616;2023-09-19T03:24:50;20.15;;;12.20;;
56770;SDS011;42641;59.794;17.616;2023-09-19T03:27:18;16.55;;;12.13;;
56770;SDS011;42641;59.794;17.616;2023-09-19T03:29:47;16.00;;;11.13;;
56770;SDS011;42641;59.794;17.616;2023-09-19T03:32:13;19.38;;;12.55;;
56770;SDS011;42641;59.794;17.616;2023-09-19T03:34:41;13.95;;;11.52;;
56770;SDS011;42641;59.794;17.616;2023-09-19T03:37:09;14.88;;;12.80;;
56770;SDS011;42641;59.794;17.616;2023-09-19T03:39:36;18.23;;;11.65;;
56770;SDS011;42641;59.794;17.616;2023-09-19T03:42:03;17.77;;;11.90;;
56770;SDS011;42641;59.794;17.616;2023-09-19T03:44:31;22.92;;;13.48;;
56770;SDS011;42641;59.794;17.616;2023-09-19T03:46:57;23.15;;;13.63;;
56770;SDS011;42641;59.794;17.616;2023-09-19T03:49:24;17.45;;;13.68;;
56770;SDS011;42641;59.794;17.616;2023-09-19T03:51:50;20.92;;;12.77;;
56770;SDS011;42641;59.794;17.616;2023-09-19T03:54:17;16.15;;;14.02;;
56770;SDS011;42641;59.794;17.616;2023-09-19T03:56:45;19.23;;;13.00;;
56770;SDS011;42641;59.794;17.616;2023-09-19T03:59:12;16.98;;;12.60;;
56770;SDS011;42641;59.794;17.616;2023-09-19T04:01:38;20.75;;;14.10;;
56770;SDS011;42641;59.794;17.616;2023-09-19T04:04:07;17.42;;;13.57;;
56770;SDS011;42641;59.794;17.616;2023-09-19T04:06:35;16.52;;;13.02;;
56770;SDS011;42641;59.794;17.616;2023-09-19T04:09:02;19.48;;;13.90;;
56770;SDS011;42641;59.794;17.616;2023-09-19T04:11:29;18.42;;;13.82;;
56770;SDS011;42641;59.794;17.616;2023-09-19T04:13:57;22.80;;;13.18;;
56770;SDS011;42641;59.794;17.616;2023-09-19T04:16:23;22.92;;;14.43;;
56770;SDS011;42641;59.794;17.616;2023-09-19T04:18:50;18.58;;;14.07;;
56770;SDS011;42641;59.794;17.616;2023-09-19T04:21:16;17.98;;;13.60;;
56770;SDS011;42641;59.794;17.616;2023-09-19T04:23:42;19.45;;;13.63;;
56770;SDS011;42641;59.794;17.616;2023-09-19T04:26:09;19.80;;;13.40;;
56770;SDS011;42641;59.794;17.616;2023-09-19T04:28:35;20.02;;;13.65;;
56770;SDS011;42641;59.794;17.616;2023-09-19T04:31:04;20.80;;;13.48;;
56770;SDS011;42641;59.794;17.616;2023-09-19T04:33:31;20.15;;;13.32;;
56770;SDS011;42641;59.794;17.616;2023-09-19T04:36:01;19.15;;;14.18;;
56770;SDS011;42641;59.794;17.616;2023-09-19T04:38:29;18.52;;;14.48;;
56770;SDS011;42641;59.794;17.616;2023-09-19T04:40:59;19.77;;;13.80;;
56770;SDS011;42641;59.794;17.616;2023-09-19T04:43:25;20.95;;;13.75;;
56770;SDS011;42641;59.794;17.616;2023-09-19T04:45:52;18.08;;;14.48;;
56770;SDS011;42641;59.794;17.616;2023-09-19T04:48:22;20.25;;;13.77;;
56770;SDS011;42641;59.794;17.616;2023-09-19T04:50:51;24.27;;;15.23;;
56770;SDS011;42641;59.794;17.616;2023-09-19T04:53:18;19.00;;;14.38;;
56770;SDS011;42641;59.794;17.616;2023-09-19T04:55:50;24.17;;;14.40;;
56770;SDS011;42641;59.794;17.616;2023-09-19T04:58:18;19.42;;;14.73;;
56770;SDS011;42641;59.794;17.616;2023-09-19T05:00:45;18.35;;;14.02;;
56770;SDS011;42641;59.794;17.616;2023-09-19T05:03:12;18.40;;;14.05;;
56770;SDS011;42641;59.794;17.616;2023-09-19T05:05:38;16.75;;;14.00;;
56770;SDS011;42641;59.794;17.616;2023-09-19T05:08:06;23.83;;;14.82;;
56770;SDS011;42641;59.794;17.616;2023-09-19T05:10:35;18.02;;;14.90;;
56770;SDS011;42641;59.794;17.616;2023-09-19T05:13:04;20.10;;;13.88;;
56770;SDS011;42641;59.794;17.616;2023-09-19T05:15:33;21.55;;;14.43;;
56770;SDS011;42641;59.794;17.616;2023-09-19T05:18:01;19.60;;;14.02;;
56770;SDS011;42641;59.794;17.616;2023-09-19T05:20:29;21.25;;;14.38;;
56770;SDS011;42641;59.794;17.616;2023-09-19T05:23:00;21.50;;;13.13;;
56770;SDS011;42641;59.794;17.616;2023-09-19T05:25:28;20.45;;;15.05;;
56770;SDS011;42641;59.794;17.616;2023-09-19T05:27:57;19.05;;;14.40;;
56770;SDS011;42641;59.794;17.616;2023-09-19T05:30:25;19.58;;;14.98;;
56770;SDS011;42641;59.794;17.616;2023-09-19T05:32:55;19.90;;;14.82;;
56770;SDS011;42641;59.794;17.616;2023-09-19T05:35:22;19.30;;;14.30;;
56770;SDS011;42641;59.794;17.616;2023-09-19T05:37:53;22.63;;;14.98;;
56770;SDS011;42641;59.794;17.616;2023-09-19T05:40:21;23.63;;;15.43;;
56770;SDS011;42641;59.794;17.616;2023-09-19T05:42:47;22.40;;;15.15;;
56770;SDS011;42641;59.794;17.616;2023-09-19T05:45:15;19.60;;;14.75;;
56770;SDS011;42641;59.794;17.616;2023-09-19T05:47:48;23.15;;;14.55;;
56770;SDS011;42641;59.794;17.616;2023-09-19T05:50:16;21.27;;;14.63;;
56770;SDS011;42641;59.794;17.616;2023-09-19T05:52:47;22.52;;;16.10;;
56770;SDS011;42641;59.794;17.616;2023-09-19T05:55:18;23.80;;;15.27;;
56770;SDS011;42641;59.794;17.616;2023-09-19T05:57:52;20.33;;;16.02;;
56770;SDS011;42641;59.794;17.616;2023-09-19T06:00:19;24.20;;;15.00;;
56770;SDS011;42641;59.794;17.616;2023-09-19T06:02:53;17.23;;;13.52;;
56770;SDS011;42641;59.794;17.616;2023-09-19T06:05:21;21.10;;;15.93;;
56770;SDS011;42641;59.794;17.616;2023-09-19T06:07:48;22.75;;;14.68;;
56770;SDS011;42641;59.794;17.616;2023-09-19T06:10:16;19.77;;;14.77;;
56770;SDS011;42641;59.794;17.616;2023-09-19T06:12:43;20.17;;;15.88;;
56770;SDS011;42641;59.794;17.616;2023-09-19T06:15:10;17.23;;;13.57;;
56770;SDS011;42641;59.794;17.616;2023-09-19T06:17:49;22.45;;;15.55;;
56770;SDS011;42641;59.794;17.616;2023-09-19T06:20:17;19.95;;;14.98;;
56770;SDS011;42641;59.794;17.616;2023-09-19T06:22:45;18.58;;;15.02;;
56770;SDS011;42641;59.794;17.616;2023-09-19T06:25:13;21.73;;;15.40;;
56770;SDS011;42641;59.794;17.616;2023-09-19T06:27:47;20.73;;;14.82;;
56770;SDS011;42641;59.794;17.616;2023-09-19T06:30:17;21.30;;;14.70;;
56770;SDS011;42641;59.794;17.616;2023-09-19T06:32:44;19.10;;;14.18;;
56770;SDS011;42641;59.794;17.616;2023-09-19T06:35:11;18.20;;;14.63;;
56770;SDS011;42641;59.794;17.616;2023-09-19T06:37:39;16.92;;;14.30;;
56770;SDS011;42641;59.794;17.616;2023-09-19T06:42:44;20.88;;;14.55;;
56770;SDS011;42641;59.794;17.616;2023-09-19T06:45:11;16.73;;;13.77;;
56770;SDS011;42641;59.794;17.616;2023-09-19T06:47:39;18.48;;;14.80;;
56770;SDS011;42641;59.794;17.616;2023-09-19T06:50:06;21.73;;;14.90;;
56770;SDS011;42641;59.794;17.616;2023-09-19T06:52:41;17.00;;;13.80;;
56770;SDS011;42641;59.794;17.616;2023-09-19T06:55:08;20.58;;;14.88;;
56770;SDS011;42641;59.794;17.616;2023-09-19T06:57:39;18.55;;;14.15;;
56770;SDS011;42641;59.794;17.616;2023-09-19T07:00:12;19.77;;;14.20;;
56770;SDS011;42641;59.794;17.616;2023-09-19T07:02:45;17.10;;;13.55;;
56770;SDS011;42641;59.794;17.616;2023-09-19T07:05:20;20.05;;;15.45;;
56770;SDS011;42641;59.794;17.616;2023-09-19T07:07:47;16.90;;;14.77;;
56770;SDS011;42641;59.794;17.616;2023-09-19T07:10:13;18.65;;;14.15;;
56770;SDS011;42641;59.794;17.616;2023-09-19T07:12:40;16.10;;;14.40;;
56770;SDS011;42641;59.794;17.616;2023-09-19T07:15:07;19.77;;;14.90;;
56770;SDS011;42641;59.794;17.616;2023-09-19T07:17:35;18.73;;;14.63;;
56770;SDS011;42641;59.794;17.616;2023-09-19T07:20:02;20.35;;;14.55;;
56770;SDS011;42641;59.794;17.616;2023-09-19T07:22:33;16.80;;;14.07;;
56770;SDS011;42641;59.794;17.616;2023-09-19T07:25:00;20.02;;;13.95;;
56770;SDS011;42641;59.794;17.616;2023-09-19T07:27:26;19.00;;;14.50;;
56770;SDS011;42641;59.794;17.616;2023-09-19T07:29:53;17.60;;;14.65;;
56770;SDS011;42641;59.794;17.616;2023-09-19T07:32:20;19.95;;;14.90;;
56770;SDS011;42641;59.794;17.616;2023-09-19T07:34:46;17.17;;;14.35;;
56770;SDS011;42641;59.794;17.616;2023-09-19T07:37:12;18.90;;;14.50;;
56770;SDS011;42641;59.794;17.616;2023-09-19T07:39:41;17.92;;;14.10;;
56770;SDS011;42641;59.794;17.616;2023-09-19T07:42:09;16.42;;;13.93;;
56770;SDS011;42641;59.794;17.616;2023-09-19T07:44:37;17.80;;;14.32;;
56770;SDS011;42641;59.794;17.616;2023-09-19T07:47:03;17.10;;;13.88;;
56770;SDS011;42641;59.794;17.616;2023-09-19T07:49:30;16.27;;;13.57;;
56770;SDS011;42641;59.794;17.616;2023-09-19T07:51:56;17.00;;;14.40;;
56770;SDS011;42641;59.794;17.616;2023-09-19T07:54:23;19.48;;;14.88;;
56770;SDS011;42641;59.794;17.616;2023-09-19T07:56:49;18.05;;;13.55;;
56770;SDS011;42641;59.794;17.616;2023-09-19T07:59:16;16.05;;;13.68;;
56770;SDS011;42641;59.794;17.616;2023-09-19T08:01:43;17.38;;;14.43;;
56770;SDS011;42641;59.794;17.616;2023-09-19T08:04:10;16.00;;;13.30;;
56770;SDS011;42641;59.794;17.616;2023-09-19T08:06:36;17.85;;;13.25;;
56770;SDS011;42641;59.794;17.616;2023-09-19T08:09:05;20.00;;;13.82;;
56770;SDS011;42641;59.794;17.616;2023-09-19T08:11:34;19.63;;;13.15;;
56770;SDS011;42641;59.794;17.616;2023-09-19T08:14:01;19.50;;;13.75;;
56770;SDS011;42641;59.794;17.616;2023-09-19T08:16:28;19.67;;;13.15;;
56770;SDS011;42641;59.794;17.616;2023-09-19T08:18:54;16.30;;;13.48;;
56770;SDS011;42641;59.794;17.616;2023-09-19T08:21:24;13.95;;;11.60;;
56770;SDS011;42641;59.794;17.616;2023-09-19T08:23:51;15.25;;;12.20;;
56770;SDS011;42641;59.794;17.616;2023-09-19T08:26:18;14.63;;;12.10;;
56770;SDS011;42641;59.794;17.616;2023-09-19T08:28:45;15.48;;;12.75;;
56770;SDS011;42641;59.794;17.616;2023-09-19T08:31:12;16.00;;;12.30;;
56770;SDS011;42641;59.794;17.616;2023-09-19T08:33:39;14.77;;;10.80;;
56770;SDS011;42641;59.794;17.616;2023-09-19T08:36:07;15.13;;;11.57;;
56770;SDS011;42641;59.794;17.616;2023-09-19T08:38:35;16.90;;;12.40;;
56770;SDS011;42641;59.794;17.616;2023-09-19T08:41:06;13.50;;;12.05;;
56770;SDS011;42641;59.794;17.616;2023-09-19T08:43:34;16.15;;;12.68;;
56770;SDS011;42641;59.794;17.616;2023-09-19T08:46:11;17.25;;;11.98;;
56770;SDS011;42641;59.794;17.616;2023-09-19T08:48:50;14.63;;;11.75;;
56770;SDS011;42641;59.794;17.616;2023-09-19T08:51:45;15.30;;;11.75;;
56770;SDS011;42641;59.794;17.616;2023-09-19T08:54:16;16.67;;;11.70;;
56770;SDS011;42641;59.794;17.616;2023-09-19T08:56:53;16.33;;;11.88;;
56770;SDS011;42641;59.794;17.616;2023-09-19T08:59:21;14.70;;;11.15;;
56770;SDS011;42641;59.794;17.616;2023-09-19T09:01:53;12.93;;;11.27;;
56770;SDS011;42641;59.794;17.616;2023-09-19T09:04:20;14.80;;;11.40;;
56770;SDS011;42641;59.794;17.616;2023-09-19T09:06:48;13.00;;;11.43;;
56770;SDS011;42641;59.794;17.616;2023-09-19T09:09:19;15.02;;;10.73;;
56770;SDS011;42641;59.794;17.616;2023-09-19T09:11:48;12.27;;;10.25;;
56770;SDS011;42641;59.794;17.616;2023-09-19T09:14:20;12.88;;;10.10;;
56770;SDS011;42641;59.794;17.616;2023-09-19T09:16:47;12.95;;;10.73;;
56770;SDS011;42641;59.794;17.616;2023-09-19T09:19:14;13.15;;;9.95;;
56770;SDS011;42641;59.794;17.616;2023-09-19T09:21:46;12.55;;;9.85;;
56770;SDS011;42641;59.794;17.616;2023-09-19T09:24:26;11.95;;;9.10;;
56770;SDS011;42641;59.794;17.616;2023-09-19T09:26:54;10.93;;;9.75;;
56770;SDS011;42641;59.794;17.616;2023-09-19T09:34:56;11.05;;;8.77;;
56770;SDS011;42641;59.794;17.616;2023-09-19T09:37:24;11.40;;;8.85;;
56770;SDS011;42641;59.794;17.616;2023-09-19T09:39:53;10.60;;;8.63;;
56770;SDS011;42641;59.794;17.616;2023-09-19T09:42:31;10.32;;;8.05;;
56770;SDS011;42641;59.794;17.616;2023-09-19T09:45:14;9.73;;;8.15;;
56770;SDS011;42641;59.794;17.616;2023-09-19T09:47:46;9.30;;;8.02;;
56770;SDS011;42641;59.794;17.616;2023-09-19T09:50:31;10.25;;;8.10;;
56770;SDS011;42641;59.794;17.616;2023-09-19T09:53:23;10.93;;;7.18;;
56770;SDS011;42641;59.794;17.616;2023-09-19T09:58:51;8.30;;;7.28;;
56770;SDS011;42641;59.794;17.616;2023-09-19T10:01:26;8.48;;;7.13;;
56770;SDS011;42641;59.794;17.616;2023-09-19T10:03:57;7.97;;;6.72;;
56770;SDS011;42641;59.794;17.616;2023-09-19T10:06:25;7.78;;;6.95;;
56770;SDS011;42641;59.794;17.616;2023-09-19T10:09:03;10.02;;;7.40;;
56770;SDS011;42641;59.794;17.616;2023-09-19T10:11:43;9.27;;;6.43;;
56770;SDS011;42641;59.794;17.616;2023-09-19T10:14:12;8.82;;;6.82;;
56770;SDS011;42641;59.794;17.616;2023-09-19T10:16:45;7.72;;;6.25;;
56770;SDS011;42641;59.794;17.616;2023-09-19T10:19:56;8.30;;;6.22;;
56770;SDS011;42641;59.794;17.616;2023-09-19T10:22:17;7.50;;;5.93;;
56770;SDS011;42641;59.794;17.616;2023-09-19T10:24:48;6.28;;;5.65;;
56770;SDS011;42641;59.794;17.616;2023-09-19T10:27:20;8.15;;;6.00;;
56770;SDS011;42641;59.794;17.616;2023-09-19T10:29:49;7.60;;;5.78;;
56770;SDS011;42641;59.794;17.616;2023-09-19T10:32:16;8.10;;;5.82;;
56770;SDS011;42641;59.794;17.616;2023-09-19T10:34:48;8.00;;;5.78;;
56770;SDS011;42641;59.794;17.616;2023-09-19T10:37:20;6.93;;;5.13;;
56770;SDS011;42641;59.794;17.616;2023-09-19T10:39:53;6.05;;;5.00;;
56770;SDS011;42641;59.794;17.616;2023-09-19T10:42:23;6.90;;;4.95;;
56770;SDS011;42641;59.794;17.616;2023-09-19T10:44:54;8.30;;;5.47;;
56770;SDS011;42641;59.794;17.616;2023-09-19T10:47:26;6.07;;;4.80;;
56770;SDS011;42641;59.794;17.616;2023-09-19T10:49:53;7.25;;;4.85;;
56770;SDS011;42641;59.794;17.616;2023-09-19T10:52:21;5.63;;;4.60;;
56770;SDS011;42641;59.794;17.616;2023-09-19T10:54:51;6.28;;;4.47;;
56770;SDS011;42641;59.794;17.616;2023-09-19T10:57:21;5.07;;;3.92;;
56770;SDS011;42641;59.794;17.616;2023-09-19T11:00:08;4.38;;;3.97;;
56770;SDS011;42641;59.794;17.616;2023-09-19T11:05:37;5.63;;;3.92;;
56770;SDS011;42641;59.794;17.616;2023-09-19T11:08:06;3.40;;;3.10;;
56770;SDS011;42641;59.794;17.616;2023-09-19T11:10:46;3.95;;;3.15;;
56770;SDS011;42641;59.794;17.616;2023-09-19T11:13:24;4.22;;;3.83;;
56770;SDS011;42641;59.794;17.616;2023-09-19T11:26:48;5.90;;;2.20;;
56770;SDS011;42641;59.794;17.616;2023-09-19T11:29:24;2.72;;;1.83;;
56770;SDS011;42641;59.794;17.616;2023-09-19T11:31:51;2.97;;;2.00;;
56770;SDS011;42641;59.794;17.616;2023-09-19T11:34:41;2.00;;;1.73;;
56770;SDS011;42641;59.794;17.616;2023-09-19T11:39:39;3.35;;;1.65;;
56770;SDS011;42641;59.794;17.616;2023-09-19T11:48:15;3.42;;;1.48;;
56770;SDS011;42641;59.794;17.616;2023-09-19T11:50:44;2.33;;;1.40;;
56770;SDS011;42641;59.794;17.616;2023-09-19T11:53:13;2.05;;;1.52;;
56770;SDS011;42641;59.794;17.616;2023-09-19T11:55:41;2.85;;;1.63;;
56770;SDS011;42641;59.794;17.616;2023-09-19T11:58:09;1.48;;;1.20;;
56770;SDS011;42641;59.794;17.616;2023-09-19T12:00:35;2.42;;;1.55;;
56770;SDS011;42641;59.794;17.616;2023-09-19T12:03:10;2.42;;;1.63;;
56770;SDS011;42641;59.794;17.616;2023-09-19T12:05:37;3.00;;;1.65;;
56770;SDS011;42641;59.794;17.616;2023-09-19T12:08:05;1.20;;;1.10;;
56770;SDS011;42641;59.794;17.616;2023-09-19T12:10:49;2.13;;;1.50;;
56770;SDS011;42641;59.794;17.616;2023-09-19T12:13:17;5.40;;;1.35;;
56770;SDS011;42641;59.794;17.616;2023-09-19T12:15:46;3.25;;;1.40;;
56770;SDS011;42641;59.794;17.616;2023-09-19T12:18:26;3.95;;;2.17;;
56770;SDS011;42641;59.794;17.616;2023-09-19T12:20:56;1.92;;;1.50;;
56770;SDS011;42641;59.794;17.616;2023-09-19T12:23:30;2.28;;;1.30;;
56770;SDS011;42641;59.794;17.616;2023-09-19T12:25:56;4.10;;;1.60;;
56770;SDS011;42641;59.794;17.616;2023-09-19T12:28:26;4.63;;;1.60;;
56770;SDS011;42641;59.794;17.616;2023-09-19T12:30:54;4.70;;;1.48;;
56770;SDS011;42641;59.794;17.616;2023-09-19T12:33:23;8.35;;;1.55;;
56770;SDS011;42641;59.794;17.616;2023-09-19T12:35:53;2.38;;;1.30;;
56770;SDS011;42641;59.794;17.616;2023-09-19T12:38:26;2.70;;;1.40;;
56770;SDS011;42641;59.794;17.616;2023-09-19T12:40:57;2.35;;;1.30;;
56770;SDS011;42641;59.794;17.616;2023-09-19T12:43:30;3.72;;;1.50;;
56770;SDS011;42641;59.794;17.616;2023-09-19T12:46:03;2.10;;;1.40;;
56770;SDS011;42641;59.794;17.616;2023-09-19T12:48:30;1.67;;;1.45;;
56770;SDS011;42641;59.794;17.616;2023-09-19T12:51:11;2.80;;;1.30;;
56770;SDS011;42641;59.794;17.616;2023-09-19T12:53:39;2.97;;;1.25;;
56770;SDS011;42641;59.794;17.616;2023-09-19T12:56:08;1.45;;;1.30;;
56770;SDS011;42641;59.794;17.616;2023-09-19T12:58:52;1.35;;;1.23;;
56770;SDS011;42641;59.794;17.616;2023-09-19T13:01:24;4.55;;;1.52;;
56770;SDS011;42641;59.794;17.616;2023-09-19T13:06:51;2.50;;;1.20;;
56770;SDS011;42641;59.794;17.616;2023-09-19T13:09:19;2.33;;;1.40;;
56770;SDS011;42641;59.794;17.616;2023-09-19T13:11:46;4.97;;;1.60;;
56770;SDS011;42641;59.794;17.616;2023-09-19T13:14:20;2.25;;;1.38;;
56770;SDS011;42641;59.794;17.616;2023-09-19T13:17:02;2.78;;;1.40;;
56770;SDS011;42641;59.794;17.616;2023-09-19T13:25:09;3.55;;;2.05;;
56770;SDS011;42641;59.794;17.616;2023-09-19T13:27:41;3.13;;;1.48;;
56770;SDS011;42641;59.794;17.616;2023-09-19T13:30:10;3.53;;;1.58;;
56770;SDS011;42641;59.794;17.616;2023-09-19T13:32:37;2.40;;;1.50;;
56770;SDS011;42641;59.794;17.616;2023-09-19T13:35:06;2.55;;;1.55;;
56770;SDS011;42641;59.794;17.616;2023-09-19T13:37:37;2.22;;;1.50;;
56770;SDS011;42641;59.794;17.616;2023-09-19T13:40:07;5.72;;;1.52;;
56770;SDS011;42641;59.794;17.616;2023-09-19T13:42:37;2.90;;;1.30;;
56770;SDS011;42641;59.794;17.616;2023-09-19T13:45:04;2.85;;;1.73;;
56770;SDS011;42641;59.794;17.616;2023-09-19T13:47:31;2.35;;;1.50;;
56770;SDS011;42641;59.794;17.616;2023-09-19T13:49:59;4.18;;;1.60;;
56770;SDS011;42641;59.794;17.616;2023-09-19T13:52:26;3.78;;;1.83;;
56770;SDS011;42641;59.794;17.616;2023-09-19T13:54:56;3.08;;;1.80;;
56770;SDS011;42641;59.794;17.616;2023-09-19T13:57:23;1.83;;;1.50;;
56770;SDS011;42641;59.794;17.616;2023-09-19T13:59:51;4.03;;;1.88;;
56770;SDS011;42641;59.794;17.616;2023-09-19T14:02:20;3.53;;;1.70;;
56770;SDS011;42641;59.794;17.616;2023-09-19T14:04:51;4.30;;;1.80;;
56770;SDS011;42641;59.794;17.616;2023-09-19T14:07:17;5.18;;;1.65;;
56770;SDS011;42641;59.794;17.616;2023-09-19T14:09:46;4.00;;;1.52;;
56770;SDS011;42641;59.794;17.616;2023-09-19T14:12:13;3.45;;;1.35;;
56770;SDS011;42641;59.794;17.616;2023-09-19T14:14:40;1.27;;;1.10;;
56770;SDS011;42641;59.794;17.616;2023-09-19T14:17:06;2.65;;;1.33;;
56770;SDS011;42641;59.794;17.616;2023-09-19T14:19:33;3.33;;;1.58;;
56770;SDS011;42641;59.794;17.616;2023-09-19T14:22:00;3.60;;;1.38;;
56770;SDS011;42641;59.794;17.616;2023-09-19T14:24:35;3.15;;;1.35;;
56770;SDS011;42641;59.794;17.616;2023-09-19T14:27:01;4.07;;;1.67;;
56770;SDS011;42641;59.794;17.616;2023-09-19T14:29:29;3.58;;;1.60;;
56770;SDS011;42641;59.794;17.616;2023-09-19T14:31:56;4.32;;;1.50;;
56770;SDS011;42641;59.794;17.616;2023-09-19T14:34:23;6.25;;;1.70;;
56770;SDS011;42641;59.794;17.616;2023-09-19T14:36:49;3.05;;;1.30;;
56770;SDS011;42641;59.794;17.616;2023-09-19T14:39:16;2.53;;;1.48;;
56770;SDS011;42641;59.794;17.616;2023-09-19T14:41:42;2.88;;;1.27;;
56770;SDS011;42641;59.794;17.616;2023-09-19T14:44:09;2.28;;;1.30;;
56770;SDS011;42641;59.794;17.616;2023-09-19T14:46:37;4.25;;;1.80;;
56770;SDS011;42641;59.794;17.616;2023-09-19T14:49:03;3.72;;;1.30;;
56770;SDS011;42641;59.794;17.616;2023-09-19T14:51:30;4.18;;;1.83;;
56770;SDS011;42641;59.794;17.616;2023-09-19T14:53:58;3.75;;;1.52;;
56770;SDS011;42641;59.794;17.616;2023-09-19T14:56:29;3.75;;;1.40;;
56770;SDS011;42641;59.794;17.616;2023-09-19T14:58:56;4.10;;;1.35;;
56770;SDS011;42641;59.794;17.616;2023-09-19T15:01:23;2.03;;;1.38;;
56770;SDS011;42641;59.794;17.616;2023-09-19T15:03:49;2.50;;;1.20;;
56770;SDS011;42641;59.794;17.616;2023-09-19T15:06:16;2.03;;;1.50;;
56770;SDS011;42641;59.794;17.616;2023-09-19T15:08:46;1.58;;;1.30;;
56770;SDS011;42641;59.794;17.616;2023-09-19T15:11:14;3.80;;;1.05;;
56770;SDS011;42641;59.794;17.616;2023-09-19T15:13:43;4.00;;;1.50;;
56770;SDS011;42641;59.794;17.616;2023-09-19T15:16:10;4.35;;;1.30;;
56770;SDS011;42641;59.794;17.616;2023-09-19T15:18:42;1.95;;;1.38;;
56770;SDS011;42641;59.794;17.616;2023-09-19T15:21:13;5.03;;;1.85;;
56770;SDS011;42641;59.794;17.616;2023-09-19T15:23:41;3.65;;;1.25;;
56770;SDS011;42641;59.794;17.616;2023-09-19T15:26:09;2.80;;;1.33;;
56770;SDS011;42641;59.794;17.616;2023-09-19T15:28:38;1.83;;;1.40;;
56770;SDS011;42641;59.794;17.616;2023-09-19T15:31:06;8.35;;;1.73;;